sensor_id;sensor_type;location;lat;lon;timestamp;temperature;humidity
72202;SHT30;60105;54.956;73.412;2023-07-29T00:02:13;20.85;73.94
72202;SHT30;60105;54.956;73.412;2023-07-29T00:05:15;20.84;73.98
72202;SHT30;60105;54.956;73.412;2023-07-29T00:08:16;20.92;74.46
72202;SHT30;60105;54.956;73.412;2023-07-29T00:11:17;20.95;74.10
72202;SHT30;60105;54.956;73.412;2023-07-29T00:14:19;20.97;73.32
72202;SHT30;60105;54.956;73.412;2023-07-29T00:17:20;20.91;73.73
72202;SHT30;60105;54.956;73.412;2023-07-29T00:20:22;20.91;74.50
72202;SHT30;60105;54.956;73.412;2023-07-29T00:23:23;20.94;74.39
72202;SHT30;60105;54.956;73.412;2023-07-29T00:27:05;21.01;74.00
72202;SHT30;60105;54.956;73.412;2023-07-29T00:30:07;21.04;73.75
72202;SHT30;60105;54.956;73.412;2023-07-29T00:33:08;21.04;74.24
72202;SHT30;60105;54.956;73.412;2023-07-29T00:36:10;21.04;73.44
72202;SHT30;60105;54.956;73.412;2023-07-29T00:39:11;21.08;73.29
72202;SHT30;60105;54.956;73.412;2023-07-29T00:42:12;21.14;72.76
72202;SHT30;60105;54.956;73.412;2023-07-29T00:45:14;21.19;72.45
72202;SHT30;60105;54.956;73.412;2023-07-29T00:48:15;21.24;72.03
72202;SHT30;60105;54.956;73.412;2023-07-29T00:51:17;21.27;71.98
72202;SHT30;60105;54.956;73.412;2023-07-29T00:54:18;21.32;72.26
72202;SHT30;60105;54.956;73.412;2023-07-29T00:57:20;21.32;72.04
72202;SHT30;60105;54.956;73.412;2023-07-29T01:00:22;21.32;71.98
72202;SHT30;60105;54.956;73.412;2023-07-29T01:03:25;21.37;70.67
72202;SHT30;60105;54.956;73.412;2023-07-29T01:17:07;21.50;71.17
72202;SHT30;60105;54.956;73.412;2023-07-29T01:20:13;21.60;71.29
72202;SHT30;60105;54.956;73.412;2023-07-29T01:23:16;21.65;70.49
72202;SHT30;60105;54.956;73.412;2023-07-29T01:26:17;21.73;70.20
72202;SHT30;60105;54.956;73.412;2023-07-29T01:29:18;21.66;70.98
72202;SHT30;60105;54.956;73.412;2023-07-29T01:32:32;21.65;70.41
72202;SHT30;60105;54.956;73.412;2023-07-29T01:38:47;21.76;69.75
72202;SHT30;60105;54.956;73.412;2023-07-29T01:41:50;21.92;70.11
72202;SHT30;60105;54.956;73.412;2023-07-29T01:44:52;22.06;68.77
72202;SHT30;60105;54.956;73.412;2023-07-29T01:47:53;22.14;68.68
72202;SHT30;60105;54.956;73.412;2023-07-29T01:50:56;22.20;68.85
72202;SHT30;60105;54.956;73.412;2023-07-29T01:53:57;22.27;69.13
72202;SHT30;60105;54.956;73.412;2023-07-29T01:57:05;22.25;68.12
72202;SHT30;60105;54.956;73.412;2023-07-29T02:00:06;22.17;68.73
72202;SHT30;60105;54.956;73.412;2023-07-29T02:03:16;22.18;68.95
72202;SHT30;60105;54.956;73.412;2023-07-29T02:06:18;22.24;68.62
72202;SHT30;60105;54.956;73.412;2023-07-29T02:09:19;22.34;69.08
72202;SHT30;60105;54.956;73.412;2023-07-29T02:12:20;22.38;69.12
72202;SHT30;60105;54.956;73.412;2023-07-29T02:15:21;22.51;69.12
72202;SHT30;60105;54.956;73.412;2023-07-29T02:18:24;22.57;68.61
72202;SHT30;60105;54.956;73.412;2023-07-29T02:22:05;22.71;68.69
72202;SHT30;60105;54.956;73.412;2023-07-29T02:25:06;22.76;69.21
72202;SHT30;60105;54.956;73.412;2023-07-29T02:28:08;22.79;69.46
72202;SHT30;60105;54.956;73.412;2023-07-29T02:31:21;22.81;69.49
72202;SHT30;60105;54.956;73.412;2023-07-29T02:34:22;22.88;70.14
72202;SHT30;60105;54.956;73.412;2023-07-29T02:37:24;22.82;70.63
72202;SHT30;60105;54.956;73.412;2023-07-29T02:40:25;22.85;70.53
72202;SHT30;60105;54.956;73.412;2023-07-29T02:43:27;22.91;70.87
72202;SHT30;60105;54.956;73.412;2023-07-29T02:47:05;22.86;70.85
72202;SHT30;60105;54.956;73.412;2023-07-29T02:50:07;22.96;71.63
72202;SHT30;60105;54.956;73.412;2023-07-29T02:53:08;23.06;71.82
72202;SHT30;60105;54.956;73.412;2023-07-29T02:56:09;23.07;72.36
72202;SHT30;60105;54.956;73.412;2023-07-29T02:59:11;23.09;72.41
72202;SHT30;60105;54.956;73.412;2023-07-29T03:02:12;23.17;72.57
72202;SHT30;60105;54.956;73.412;2023-07-29T03:05:16;23.24;73.25
72202;SHT30;60105;54.956;73.412;2023-07-29T03:08:18;23.24;73.26
72202;SHT30;60105;54.956;73.412;2023-07-29T03:11:19;23.27;74.06
72202;SHT30;60105;54.956;73.412;2023-07-29T03:14:22;23.31;74.50
72202;SHT30;60105;54.956;73.412;2023-07-29T03:17:23;23.43;73.40
72202;SHT30;60105;54.956;73.412;2023-07-29T03:20:25;23.58;74.38
72202;SHT30;60105;54.956;73.412;2023-07-29T03:23:28;23.70;74.25
72202;SHT30;60105;54.956;73.412;2023-07-29T03:27:05;23.79;74.95
72202;SHT30;60105;54.956;73.412;2023-07-29T03:30:06;23.57;74.89
72202;SHT30;60105;54.956;73.412;2023-07-29T03:33:08;23.36;75.57
72202;SHT30;60105;54.956;73.412;2023-07-29T03:36:10;23.39;75.36
72202;SHT30;60105;54.956;73.412;2023-07-29T03:39:14;23.51;75.69
72202;SHT30;60105;54.956;73.412;2023-07-29T03:42:15;23.60;75.56
72202;SHT30;60105;54.956;73.412;2023-07-29T03:45:17;23.61;75.34
72202;SHT30;60105;54.956;73.412;2023-07-29T03:48:18;23.60;75.72
72202;SHT30;60105;54.956;73.412;2023-07-29T03:51:19;23.71;75.62
72202;SHT30;60105;54.956;73.412;2023-07-29T03:54:22;23.67;75.36
72202;SHT30;60105;54.956;73.412;2023-07-29T03:57:24;23.60;75.38
72202;SHT30;60105;54.956;73.412;2023-07-29T04:00:25;23.64;75.24
72202;SHT30;60105;54.956;73.412;2023-07-29T04:03:27;23.67;74.33
72202;SHT30;60105;54.956;73.412;2023-07-29T04:07:05;23.65;73.86
72202;SHT30;60105;54.956;73.412;2023-07-29T04:10:07;23.75;73.47
72202;SHT30;60105;54.956;73.412;2023-07-29T04:13:08;23.67;73.52
72202;SHT30;60105;54.956;73.412;2023-07-29T04:16:10;23.61;73.73
72202;SHT30;60105;54.956;73.412;2023-07-29T04:19:11;23.68;73.95
72202;SHT30;60105;54.956;73.412;2023-07-29T04:22:13;23.57;74.12
72202;SHT30;60105;54.956;73.412;2023-07-29T04:25:15;23.50;74.87
72202;SHT30;60105;54.956;73.412;2023-07-29T04:28:16;23.47;74.59
72202;SHT30;60105;54.956;73.412;2023-07-29T04:31:18;23.57;74.79
72202;SHT30;60105;54.956;73.412;2023-07-29T04:34:19;23.60;74.67
72202;SHT30;60105;54.956;73.412;2023-07-29T04:37:21;23.88;73.95
72202;SHT30;60105;54.956;73.412;2023-07-29T04:40:22;24.13;73.13
72202;SHT30;60105;54.956;73.412;2023-07-29T04:43:32;24.29;72.50
72202;SHT30;60105;54.956;73.412;2023-07-29T04:47:05;24.53;70.80
72202;SHT30;60105;54.956;73.412;2023-07-29T04:50:07;24.76;70.64
72202;SHT30;60105;54.956;73.412;2023-07-29T04:53:08;24.66;70.39
72202;SHT30;60105;54.956;73.412;2023-07-29T04:56:10;24.63;70.66
72202;SHT30;60105;54.956;73.412;2023-07-29T04:59:12;24.60;70.72
72202;SHT30;60105;54.956;73.412;2023-07-29T05:02:14;24.48;70.45
72202;SHT30;60105;54.956;73.412;2023-07-29T05:05:16;24.46;70.55
72202;SHT30;60105;54.956;73.412;2023-07-29T05:08:18;24.28;71.06
72202;SHT30;60105;54.956;73.412;2023-07-29T05:11:20;24.16;71.53
72202;SHT30;60105;54.956;73.412;2023-07-29T05:14:22;24.09;71.85
72202;SHT30;60105;54.956;73.412;2023-07-29T05:17:24;24.08;72.31
72202;SHT30;60105;54.956;73.412;2023-07-29T05:20:25;24.05;71.95
72202;SHT30;60105;54.956;73.412;2023-07-29T05:23:28;24.05;71.28
72202;SHT30;60105;54.956;73.412;2023-07-29T05:27:05;24.15;69.80
72202;SHT30;60105;54.956;73.412;2023-07-29T05:30:07;24.16;69.56
72202;SHT30;60105;54.956;73.412;2023-07-29T05:33:09;24.23;68.96
72202;SHT30;60105;54.956;73.412;2023-07-29T05:36:10;24.15;69.58
72202;SHT30;60105;54.956;73.412;2023-07-29T05:39:12;24.06;70.37
72202;SHT30;60105;54.956;73.412;2023-07-29T05:42:13;24.08;70.38
72202;SHT30;60105;54.956;73.412;2023-07-29T05:45:15;24.02;70.83
72202;SHT30;60105;54.956;73.412;2023-07-29T05:48:16;24.02;70.21
72202;SHT30;60105;54.956;73.412;2023-07-29T05:51:19;24.15;70.62
72202;SHT30;60105;54.956;73.412;2023-07-29T05:54:20;24.28;69.17
72202;SHT30;60105;54.956;73.412;2023-07-29T05:57:22;24.23;69.15
72202;SHT30;60105;54.956;73.412;2023-07-29T06:00:23;24.36;69.36
72202;SHT30;60105;54.956;73.412;2023-07-29T06:03:25;24.35;69.38
72202;SHT30;60105;54.956;73.412;2023-07-29T06:07:05;24.35;69.20
72202;SHT30;60105;54.956;73.412;2023-07-29T06:10:07;24.21;69.64
72202;SHT30;60105;54.956;73.412;2023-07-29T06:13:09;23.98;70.13
72202;SHT30;60105;54.956;73.412;2023-07-29T06:16:11;24.06;69.32
72202;SHT30;60105;54.956;73.412;2023-07-29T06:19:13;24.11;69.01
72202;SHT30;60105;54.956;73.412;2023-07-29T06:22:16;24.13;69.57
72202;SHT30;60105;54.956;73.412;2023-07-29T06:25:17;24.15;69.14
72202;SHT30;60105;54.956;73.412;2023-07-29T06:28:22;24.12;68.69
72202;SHT30;60105;54.956;73.412;2023-07-29T06:32:05;24.13;68.43
72202;SHT30;60105;54.956;73.412;2023-07-29T06:35:07;24.22;68.17
72202;SHT30;60105;54.956;73.412;2023-07-29T06:38:08;24.28;67.99
72202;SHT30;60105;54.956;73.412;2023-07-29T06:41:10;24.37;67.59
72202;SHT30;60105;54.956;73.412;2023-07-29T06:44:11;24.48;67.71
72202;SHT30;60105;54.956;73.412;2023-07-29T06:47:13;24.64;66.41
72202;SHT30;60105;54.956;73.412;2023-07-29T06:50:14;24.60;66.40
72202;SHT30;60105;54.956;73.412;2023-07-29T06:53:16;24.71;66.50
72202;SHT30;60105;54.956;73.412;2023-07-29T06:56:17;24.74;66.13
72202;SHT30;60105;54.956;73.412;2023-07-29T06:59:19;24.80;66.16
72202;SHT30;60105;54.956;73.412;2023-07-29T07:02:21;24.97;66.11
72202;SHT30;60105;54.956;73.412;2023-07-29T07:05:22;25.17;65.09
72202;SHT30;60105;54.956;73.412;2023-07-29T07:08:24;25.03;64.87
72202;SHT30;60105;54.956;73.412;2023-07-29T07:11:34;24.76;64.95
72202;SHT30;60105;54.956;73.412;2023-07-29T07:14:40;24.57;65.77
72202;SHT30;60105;54.956;73.412;2023-07-29T07:17:41;24.64;65.91
72202;SHT30;60105;54.956;73.412;2023-07-29T07:20:43;24.77;65.38
72202;SHT30;60105;54.956;73.412;2023-07-29T07:23:44;24.87;64.29
72202;SHT30;60105;54.956;73.412;2023-07-29T07:27:05;24.74;64.80
72202;SHT30;60105;54.956;73.412;2023-07-29T07:30:06;24.67;66.01
72202;SHT30;60105;54.956;73.412;2023-07-29T07:33:08;24.79;66.00
72202;SHT30;60105;54.956;73.412;2023-07-29T07:36:09;24.94;63.97
72202;SHT30;60105;54.956;73.412;2023-07-29T07:39:10;24.84;65.00
72202;SHT30;60105;54.956;73.412;2023-07-29T07:42:12;24.80;64.44
72202;SHT30;60105;54.956;73.412;2023-07-29T07:45:13;24.76;65.07
72202;SHT30;60105;54.956;73.412;2023-07-29T07:48:15;24.73;64.88
72202;SHT30;60105;54.956;73.412;2023-07-29T07:51:17;24.81;65.12
72202;SHT30;60105;54.956;73.412;2023-07-29T07:54:19;24.87;65.42
72202;SHT30;60105;54.956;73.412;2023-07-29T07:57:21;25.08;65.91
72202;SHT30;60105;54.956;73.412;2023-07-29T08:00:23;25.01;65.55
72202;SHT30;60105;54.956;73.412;2023-07-29T08:03:24;24.74;65.15
72202;SHT30;60105;54.956;73.412;2023-07-29T08:07:05;24.63;65.86
72202;SHT30;60105;54.956;73.412;2023-07-29T08:10:07;24.29;66.94
72202;SHT30;60105;54.956;73.412;2023-07-29T08:13:08;24.49;66.16
72202;SHT30;60105;54.956;73.412;2023-07-29T08:16:10;24.62;65.58
72202;SHT30;60105;54.956;73.412;2023-07-29T08:19:11;24.92;65.28
72202;SHT30;60105;54.956;73.412;2023-07-29T08:22:12;25.28;64.21
72202;SHT30;60105;54.956;73.412;2023-07-29T08:25:14;25.21;63.45
72202;SHT30;60105;54.956;73.412;2023-07-29T08:28:15;25.07;63.73
72202;SHT30;60105;54.956;73.412;2023-07-29T08:31:17;24.90;65.02
72202;SHT30;60105;54.956;73.412;2023-07-29T08:34:18;24.83;65.44
72202;SHT30;60105;54.956;73.412;2023-07-29T08:37:20;24.80;65.73
72202;SHT30;60105;54.956;73.412;2023-07-29T08:40:26;24.57;65.98
72202;SHT30;60105;54.956;73.412;2023-07-29T08:43:29;24.46;66.62
72202;SHT30;60105;54.956;73.412;2023-07-29T08:47:05;24.62;65.97
72202;SHT30;60105;54.956;73.412;2023-07-29T08:50:07;24.55;66.06
72202;SHT30;60105;54.956;73.412;2023-07-29T08:53:08;24.63;66.52
72202;SHT30;60105;54.956;73.412;2023-07-29T08:56:11;24.74;65.30
72202;SHT30;60105;54.956;73.412;2023-07-29T08:59:13;24.86;64.99
72202;SHT30;60105;54.956;73.412;2023-07-29T09:02:15;24.90;64.74
72202;SHT30;60105;54.956;73.412;2023-07-29T09:05:17;24.97;64.25
72202;SHT30;60105;54.956;73.412;2023-07-29T09:08:19;25.10;64.17
72202;SHT30;60105;54.956;73.412;2023-07-29T09:11:33;24.77;64.14
72202;SHT30;60105;54.956;73.412;2023-07-29T09:14:35;24.80;63.91
72202;SHT30;60105;54.956;73.412;2023-07-29T09:17:36;24.91;63.87
72202;SHT30;60105;54.956;73.412;2023-07-29T09:20:38;24.92;64.51
72202;SHT30;60105;54.956;73.412;2023-07-29T09:23:43;24.83;64.23
72202;SHT30;60105;54.956;73.412;2023-07-29T09:27:05;24.63;64.92
72202;SHT30;60105;54.956;73.412;2023-07-29T09:30:06;24.73;65.16
72202;SHT30;60105;54.956;73.412;2023-07-29T09:33:26;24.88;62.57
72202;SHT30;60105;54.956;73.412;2023-07-29T09:37:05;24.74;62.73
72202;SHT30;60105;54.956;73.412;2023-07-29T09:40:13;24.42;64.53
72202;SHT30;60105;54.956;73.412;2023-07-29T09:43:16;24.55;64.61
72202;SHT30;60105;54.956;73.412;2023-07-29T09:46:18;24.90;63.71
72202;SHT30;60105;54.956;73.412;2023-07-29T09:49:19;25.14;63.47
72202;SHT30;60105;54.956;73.412;2023-07-29T09:52:24;25.35;62.72
72202;SHT30;60105;54.956;73.412;2023-07-29T09:55:26;25.28;63.24
72202;SHT30;60105;54.956;73.412;2023-07-29T09:58:29;25.15;63.09
72202;SHT30;60105;54.956;73.412;2023-07-29T10:02:10;24.94;63.66
72202;SHT30;60105;54.956;73.412;2023-07-29T10:05:14;24.79;64.09
72202;SHT30;60105;54.956;73.412;2023-07-29T10:08:16;25.04;63.83
72202;SHT30;60105;54.956;73.412;2023-07-29T10:11:20;25.11;63.80
72202;SHT30;60105;54.956;73.412;2023-07-29T10:14:23;25.24;62.31
72202;SHT30;60105;54.956;73.412;2023-07-29T10:17:26;25.37;62.57
72202;SHT30;60105;54.956;73.412;2023-07-29T10:20:30;25.32;62.84
72202;SHT30;60105;54.956;73.412;2023-07-29T10:23:38;25.08;62.79
72202;SHT30;60105;54.956;73.412;2023-07-29T10:27:05;24.77;63.71
72202;SHT30;60105;54.956;73.412;2023-07-29T10:30:07;24.66;63.86
72202;SHT30;60105;54.956;73.412;2023-07-29T10:33:09;24.48;64.12
72202;SHT30;60105;54.956;73.412;2023-07-29T10:36:12;24.64;63.81
72202;SHT30;60105;54.956;73.412;2023-07-29T10:39:14;24.88;62.87
72202;SHT30;60105;54.956;73.412;2023-07-29T10:42:15;25.08;63.33
72202;SHT30;60105;54.956;73.412;2023-07-29T10:45:20;25.34;62.34
72202;SHT30;60105;54.956;73.412;2023-07-29T10:52:05;25.70;59.40
72202;SHT30;60105;54.956;73.412;2023-07-29T10:55:26;25.79;58.20
72202;SHT30;60105;54.956;73.412;2023-07-29T10:58:29;25.76;58.51
72202;SHT30;60105;54.956;73.412;2023-07-29T11:02:15;25.85;57.65
72202;SHT30;60105;54.956;73.412;2023-07-29T11:05:17;26.01;58.05
72202;SHT30;60105;54.956;73.412;2023-07-29T11:11:33;26.27;58.08
72202;SHT30;60105;54.956;73.412;2023-07-29T11:14:38;26.37;57.83
72202;SHT30;60105;54.956;73.412;2023-07-29T11:20:44;26.17;56.36
72202;SHT30;60105;54.956;73.412;2023-07-29T11:23:46;26.09;56.61
72202;SHT30;60105;54.956;73.412;2023-07-29T11:27:05;26.16;56.53
72202;SHT30;60105;54.956;73.412;2023-07-29T11:30:11;26.28;55.67
72202;SHT30;60105;54.956;73.412;2023-07-29T11:33:12;26.47;55.20
72202;SHT30;60105;54.956;73.412;2023-07-29T11:36:18;26.67;56.18
72202;SHT30;60105;54.956;73.412;2023-07-29T11:39:20;26.72;55.92
72202;SHT30;60105;54.956;73.412;2023-07-29T11:42:21;26.89;55.61
72202;SHT30;60105;54.956;73.412;2023-07-29T11:45:23;26.51;56.31
72202;SHT30;60105;54.956;73.412;2023-07-29T11:48:32;26.31;56.45
72202;SHT30;60105;54.956;73.412;2023-07-29T11:52:09;25.90;56.76
72202;SHT30;60105;54.956;73.412;2023-07-29T11:55:12;25.59;58.07
72202;SHT30;60105;54.956;73.412;2023-07-29T11:58:15;25.45;58.45
72202;SHT30;60105;54.956;73.412;2023-07-29T12:01:16;25.38;58.64
72202;SHT30;60105;54.956;73.412;2023-07-29T12:04:18;25.25;59.56
72202;SHT30;60105;54.956;73.412;2023-07-29T12:07:19;25.27;59.32
72202;SHT30;60105;54.956;73.412;2023-07-29T12:11:00;25.27;59.42
72202;SHT30;60105;54.956;73.412;2023-07-29T12:14:01;25.37;58.55
72202;SHT30;60105;54.956;73.412;2023-07-29T12:17:07;25.49;58.33
72202;SHT30;60105;54.956;73.412;2023-07-29T12:20:09;25.59;58.07
72202;SHT30;60105;54.956;73.412;2023-07-29T12:23:25;25.83;57.98
72202;SHT30;60105;54.956;73.412;2023-07-29T12:26:28;26.00;57.24
72202;SHT30;60105;54.956;73.412;2023-07-29T12:29:30;26.10;57.34
72202;SHT30;60105;54.956;73.412;2023-07-29T12:32:31;26.06;57.62
72202;SHT30;60105;54.956;73.412;2023-07-29T12:35:39;25.97;58.11
72202;SHT30;60105;54.956;73.412;2023-07-29T12:38:43;26.10;57.53
72202;SHT30;60105;54.956;73.412;2023-07-29T12:41:47;26.24;56.31
72202;SHT30;60105;54.956;73.412;2023-07-29T12:44:49;26.03;57.15
72202;SHT30;60105;54.956;73.412;2023-07-29T12:47:55;25.93;57.10
72202;SHT30;60105;54.956;73.412;2023-07-29T12:51:00;25.76;57.80
72202;SHT30;60105;54.956;73.412;2023-07-29T12:54:01;25.58;57.90
72202;SHT30;60105;54.956;73.412;2023-07-29T12:57:04;25.66;57.67
72202;SHT30;60105;54.956;73.412;2023-07-29T13:00:07;25.73;56.47
72202;SHT30;60105;54.956;73.412;2023-07-29T13:03:25;26.07;56.62
72202;SHT30;60105;54.956;73.412;2023-07-29T13:06:28;26.13;56.08
72202;SHT30;60105;54.956;73.412;2023-07-29T13:09:30;25.85;57.10
72202;SHT30;60105;54.956;73.412;2023-07-29T13:12:32;25.79;58.06
72202;SHT30;60105;54.956;73.412;2023-07-29T13:15:33;25.58;58.55
72202;SHT30;60105;54.956;73.412;2023-07-29T13:18:35;25.42;59.36
72202;SHT30;60105;54.956;73.412;2023-07-29T13:21:36;25.32;58.67
72202;SHT30;60105;54.956;73.412;2023-07-29T13:24:38;25.35;58.95
72202;SHT30;60105;54.956;73.412;2023-07-29T13:28:25;25.57;59.28
72202;SHT30;60105;54.956;73.412;2023-07-29T13:31:27;25.69;59.44
72202;SHT30;60105;54.956;73.412;2023-07-29T13:34:28;25.78;59.53
72202;SHT30;60105;54.956;73.412;2023-07-29T13:37:29;25.94;59.18
72202;SHT30;60105;54.956;73.412;2023-07-29T13:40:31;25.85;59.68
72202;SHT30;60105;54.956;73.412;2023-07-29T13:43:33;25.82;59.20
72202;SHT30;60105;54.956;73.412;2023-07-29T13:46:34;25.85;59.50
72202;SHT30;60105;54.956;73.412;2023-07-29T13:49:35;25.73;58.59
72202;SHT30;60105;54.956;73.412;2023-07-29T13:52:36;25.43;57.97
72202;SHT30;60105;54.956;73.412;2023-07-29T13:55:38;25.22;59.25
72202;SHT30;60105;54.956;73.412;2023-07-29T13:58:40;25.38;58.99
72202;SHT30;60105;54.956;73.412;2023-07-29T14:01:41;24.97;60.50
72202;SHT30;60105;54.956;73.412;2023-07-29T14:04:43;24.74;60.91
72202;SHT30;60105;54.956;73.412;2023-07-29T14:08:25;24.55;61.65
72202;SHT30;60105;54.956;73.412;2023-07-29T14:11:27;24.46;61.98
72202;SHT30;60105;54.956;73.412;2023-07-29T14:14:28;24.39;62.01
72202;SHT30;60105;54.956;73.412;2023-07-29T14:17:29;24.26;62.69
72202;SHT30;60105;54.956;73.412;2023-07-29T14:20:32;24.21;62.73
72202;SHT30;60105;54.956;73.412;2023-07-29T14:23:33;24.21;62.66
72202;SHT30;60105;54.956;73.412;2023-07-29T14:26:34;24.25;62.69
72202;SHT30;60105;54.956;73.412;2023-07-29T14:29:35;24.23;62.87
72202;SHT30;60105;54.956;73.412;2023-07-29T14:32:37;24.23;63.07
72202;SHT30;60105;54.956;73.412;2023-07-29T14:35:39;24.19;63.72
72202;SHT30;60105;54.956;73.412;2023-07-29T14:38:40;24.16;64.43
72202;SHT30;60105;54.956;73.412;2023-07-29T14:41:41;24.09;64.66
72202;SHT30;60105;54.956;73.412;2023-07-29T14:44:43;23.97;65.32
72202;SHT30;60105;54.956;73.412;2023-07-29T14:47:54;23.84;66.14
72202;SHT30;60105;54.956;73.412;2023-07-29T14:50:55;23.70;65.03
72202;SHT30;60105;54.956;73.412;2023-07-29T14:53:56;23.58;64.61
72202;SHT30;60105;54.956;73.412;2023-07-29T14:56:58;23.43;64.83
72202;SHT30;60105;54.956;73.412;2023-07-29T14:59:59;23.36;65.29
72202;SHT30;60105;54.956;73.412;2023-07-29T15:03:25;23.27;65.63
72202;SHT30;60105;54.956;73.412;2023-07-29T15:06:26;23.19;65.59
72202;SHT30;60105;54.956;73.412;2023-07-29T15:09:28;23.15;65.84
72202;SHT30;60105;54.956;73.412;2023-07-29T15:12:29;23.07;66.49
72202;SHT30;60105;54.956;73.412;2023-07-29T15:15:31;22.98;66.74
72202;SHT30;60105;54.956;73.412;2023-07-29T15:18:32;22.84;67.56
72202;SHT30;60105;54.956;73.412;2023-07-29T15:21:34;22.75;68.10
72202;SHT30;60105;54.956;73.412;2023-07-29T15:24:35;22.69;68.47
72202;SHT30;60105;54.956;73.412;2023-07-29T15:27:41;22.59;68.94
72202;SHT30;60105;54.956;73.412;2023-07-29T15:30:42;22.52;69.36
72202;SHT30;60105;54.956;73.412;2023-07-29T15:33:43;22.52;69.45
72202;SHT30;60105;54.956;73.412;2023-07-29T15:36:45;22.45;70.10
72202;SHT30;60105;54.956;73.412;2023-07-29T15:39:46;22.34;70.67
72202;SHT30;60105;54.956;73.412;2023-07-29T15:43:25;22.28;71.45
72202;SHT30;60105;54.956;73.412;2023-07-29T15:46:26;22.24;71.64
72202;SHT30;60105;54.956;73.412;2023-07-29T15:49:28;22.21;72.16
72202;SHT30;60105;54.956;73.412;2023-07-29T15:52:30;22.13;72.83
72202;SHT30;60105;54.956;73.412;2023-07-29T15:55:32;22.07;73.14
72202;SHT30;60105;54.956;73.412;2023-07-29T15:58:33;22.03;73.44
72202;SHT30;60105;54.956;73.412;2023-07-29T16:01:35;22.00;73.58
72202;SHT30;60105;54.956;73.412;2023-07-29T16:04:36;21.99;73.84
72202;SHT30;60105;54.956;73.412;2023-07-29T16:07:37;21.96;74.23
72202;SHT30;60105;54.956;73.412;2023-07-29T16:10:39;21.96;74.67
72202;SHT30;60105;54.956;73.412;2023-07-29T16:13:40;21.92;75.05
72202;SHT30;60105;54.956;73.412;2023-07-29T16:16:42;21.93;75.13
72202;SHT30;60105;54.956;73.412;2023-07-29T16:19:54;21.96;75.23
72202;SHT30;60105;54.956;73.412;2023-07-29T16:23:25;21.97;75.40
72202;SHT30;60105;54.956;73.412;2023-07-29T16:26:26;21.94;75.87
72202;SHT30;60105;54.956;73.412;2023-07-29T16:29:28;21.94;76.25
72202;SHT30;60105;54.956;73.412;2023-07-29T16:32:29;21.92;76.79
72202;SHT30;60105;54.956;73.412;2023-07-29T16:35:31;21.90;76.75
72202;SHT30;60105;54.956;73.412;2023-07-29T16:38:32;21.85;77.24
72202;SHT30;60105;54.956;73.412;2023-07-29T16:41:33;21.76;77.39
72202;SHT30;60105;54.956;73.412;2023-07-29T16:44:38;21.69;78.41
72202;SHT30;60105;54.956;73.412;2023-07-29T16:47:54;21.59;79.26
72202;SHT30;60105;54.956;73.412;2023-07-29T16:50:55;21.50;79.82
72202;SHT30;60105;54.956;73.412;2023-07-29T16:53:57;21.43;79.84
72202;SHT30;60105;54.956;73.412;2023-07-29T16:56:58;21.39;79.72
72202;SHT30;60105;54.956;73.412;2023-07-29T17:00:00;21.34;79.96
72202;SHT30;60105;54.956;73.412;2023-07-29T17:03:25;21.29;80.16
72202;SHT30;60105;54.956;73.412;2023-07-29T17:06:26;21.25;80.22
72202;SHT30;60105;54.956;73.412;2023-07-29T17:09:28;21.19;80.04
72202;SHT30;60105;54.956;73.412;2023-07-29T17:12:30;21.14;80.09
72202;SHT30;60105;54.956;73.412;2023-07-29T17:15:31;21.11;79.94
72202;SHT30;60105;54.956;73.412;2023-07-29T17:18:32;21.04;79.90
72202;SHT30;60105;54.956;73.412;2023-07-29T17:21:35;20.97;80.20
72202;SHT30;60105;54.956;73.412;2023-07-29T17:24:36;21.08;79.71
72202;SHT30;60105;54.956;73.412;2023-07-29T17:27:37;21.04;79.67
72202;SHT30;60105;54.956;73.412;2023-07-29T17:30:39;21.02;79.68
72202;SHT30;60105;54.956;73.412;2023-07-29T17:33:40;20.95;79.66
72202;SHT30;60105;54.956;73.412;2023-07-29T17:36:43;20.91;79.95
72202;SHT30;60105;54.956;73.412;2023-07-29T17:39:44;20.87;79.88
72202;SHT30;60105;54.956;73.412;2023-07-29T17:43:25;20.79;79.97
72202;SHT30;60105;54.956;73.412;2023-07-29T17:46:26;20.76;79.99
72202;SHT30;60105;54.956;73.412;2023-07-29T17:49:28;20.71;80.15
72202;SHT30;60105;54.956;73.412;2023-07-29T17:52:29;20.64;80.59
72202;SHT30;60105;54.956;73.412;2023-07-29T17:55:35;20.61;80.64
72202;SHT30;60105;54.956;73.412;2023-07-29T17:58:36;20.53;81.04
72202;SHT30;60105;54.956;73.412;2023-07-29T18:01:40;20.53;81.15
72202;SHT30;60105;54.956;73.412;2023-07-29T18:04:41;20.49;81.22
72202;SHT30;60105;54.956;73.412;2023-07-29T18:08:25;20.43;81.62
72202;SHT30;60105;54.956;73.412;2023-07-29T18:11:26;20.42;81.66
72202;SHT30;60105;54.956;73.412;2023-07-29T18:14:28;20.40;81.55
72202;SHT30;60105;54.956;73.412;2023-07-29T18:17:30;20.40;81.28
72202;SHT30;60105;54.956;73.412;2023-07-29T18:20:31;20.37;81.61
72202;SHT30;60105;54.956;73.412;2023-07-29T18:23:32;20.30;81.67
72202;SHT30;60105;54.956;73.412;2023-07-29T18:26:34;20.18;82.18
72202;SHT30;60105;54.956;73.412;2023-07-29T18:29:35;20.12;82.32
72202;SHT30;60105;54.956;73.412;2023-07-29T18:32:36;20.12;82.36
72202;SHT30;60105;54.956;73.412;2023-07-29T18:35:41;20.01;82.63
72202;SHT30;60105;54.956;73.412;2023-07-29T18:38:43;19.99;82.70
72202;SHT30;60105;54.956;73.412;2023-07-29T18:41:44;19.99;82.77
72202;SHT30;60105;54.956;73.412;2023-07-29T18:44:46;19.95;82.84
72202;SHT30;60105;54.956;73.412;2023-07-29T18:47:53;19.98;82.85
72202;SHT30;60105;54.956;73.412;2023-07-29T18:50:55;19.92;82.93
72202;SHT30;60105;54.956;73.412;2023-07-29T18:53:56;19.94;82.89
72202;SHT30;60105;54.956;73.412;2023-07-29T18:56:58;19.92;82.96
72202;SHT30;60105;54.956;73.412;2023-07-29T19:00:00;19.89;82.86
72202;SHT30;60105;54.956;73.412;2023-07-29T19:03:24;19.91;82.48
72202;SHT30;60105;54.956;73.412;2023-07-29T19:06:25;19.86;82.35
72202;SHT30;60105;54.956;73.412;2023-07-29T19:09:27;19.84;82.14
72202;SHT30;60105;54.956;73.412;2023-07-29T19:12:28;19.81;82.30
72202;SHT30;60105;54.956;73.412;2023-07-29T19:15:30;19.73;82.45
72202;SHT30;60105;54.956;73.412;2023-07-29T19:18:31;19.75;82.45
72202;SHT30;60105;54.956;73.412;2023-07-29T19:21:32;19.73;82.17
72202;SHT30;60105;54.956;73.412;2023-07-29T19:24:34;19.73;82.27
72202;SHT30;60105;54.956;73.412;2023-07-29T19:27:36;19.70;82.38
72202;SHT30;60105;54.956;73.412;2023-07-29T19:30:37;19.74;82.13
72202;SHT30;60105;54.956;73.412;2023-07-29T19:33:39;19.70;82.47